Weather observations for the past three days for
Sparta Upper Cumberland Regional Airport
Imperial (Metric)
Date Time (cdt) Wind (mph) Vis. (mi.) Weather Sky Cond. Temperature (ºF) Relative Humidity Wind Chill (°F) Heat Index (°F) Pressure Precipitation (in)
Air Dwpt 6 hour altimeter (in) sea level (mb) 1 hr 3 hr 6 hr
Max. Min.
02 23:35 Calm 9.00 Fair CLR 73.4 73.4 100% 30.06 0.0
02 23:15 Calm 10.00 Fair CLR 73.4 73.4 100% 30.06 0.0
02 22:55 Calm 10.00 Fair CLR 73.4 73.4 100% 30.06 0.0
02 22:35 Calm 10.00 Fair CLR 73.4 73.4 100% 30.06 0.0
02 22:15 Calm 10.00 Fair CLR 75.2 75.2 100% 73 30.07 0.0
02 21:55 Calm 10.00 Fair CLR 75.2 75.2 100% 73 30.07 0.0
02 21:35 Calm 10.00 Fair CLR 75.2 75.2 100% 73 30.06 0.0
02 21:15 Calm 10.00 Fair CLR 77 77 100% 78 30.06 0.0
02 20:55 Calm 10.00 Fair CLR 75.2 75.2 100% 73 30.06 0.0
02 20:35 Calm 10.00 Fair CLR 77 77 100% 78 30.06 0.0
02 20:15 Calm 10.00 Fair CLR 78.8 77 94% 83 30.05 0.0
02 19:55 Calm 10.00 Fair CLR 78.8 77 94% 83 30.05 0.0
02 19:35 Calm 10.00 Fair CLR 78.8 77 94% 83 30.05 0.0
02 19:15 Calm 10.00 A Few Clouds FEW060 82.4 75.2 79% 89 30.05 0.0
02 18:55 Calm 10.00 Fair CLR 86 75.2 70% 95 30.05 0.0
02 18:35 Calm 10.00 Fair CLR 87.8 73.4 62% 96 30.04 0.0
02 18:15 Calm 10.00 Fair CLR 89.6 75.2 63% 100 30.04 0.0
02 17:55 Calm 10.00 Fair CLR 93.2 73.4 53% 103 30.05 0.0
02 17:35 Calm 10.00 Fair CLR 93.2 71.6 50% 101 30.05 0.0
02 17:15 Calm 10.00 Fair CLR 95 69.8 44% 101 30.05 0.0
02 16:55 Calm 10.00 Fair CLR 95 68 41% 100 30.05 0.0
02 16:35 Calm 10.00 Fair CLR 96.8 69.8 42% 103 30.05 0.0
02 16:15 Vrbl 6 10.00 Fair CLR 96.8 68 39% 102 30.05 0.0
02 15:55 Calm 10.00 Fair CLR 96.8 68 39% 102 30.05 0.0
02 15:35 Calm 10.00 Fair CLR 96.8 69.8 42% 103 30.06 0.0
02 15:15 Calm 10.00 Fair CLR 95 68 41% 100 30.06 0.0
02 14:55 NW 5 10.00 Fair CLR 95 68 41% 100 30.07 0.0
02 14:35 Calm 10.00 Fair CLR 95 68 41% 100 30.08 0.0
02 14:15 Calm 10.00 Partly Cloudy SCT060 SCT075 SCT085 93.2 69.8 47% 99 30.09 0.0
02 13:55 N 6 10.00 Partly Cloudy SCT060 95 69.8 44% 101 30.09 0.0
02 13:35 Calm 10.00 Fair CLR 95 68 41% 100 30.1 0.0
02 13:15 Calm 5.00 Fair with Haze CLR 95 69.8 44% 101 30.1 0.0
02 12:55 Calm 10.00 Fair CLR 95 69.8 44% 101 30.11 0.0
02 12:35 Calm 10.00 Fair CLR 95 69.8 44% 101 30.12 0.0
02 12:15 W 5 10.00 Fair CLR 95 71.6 47% 103 30.13 0.0
02 11:55 SW 3 10.00 Fair CLR 93.2 69.8 47% 99 30.13 0.0
02 11:35 Calm 10.00 Fair CLR 93.2 69.8 47% 99 30.14 0.0
02 11:15 Calm 10.00 Fair CLR 91.4 69.8 49% 97 30.15 0.0
02 10:55 Calm 10.00 Fair CLR 91.4 73.4 56% 100 30.15 0.0
02 10:35 SW 3 10.00 Fair CLR 91.4 71.6 52% 99 30.15 0.0
02 10:15 SW 6 10.00 Fair CLR 89.6 73.4 59% 98 30.16 0.0
02 09:55 SW 3 10.00 Fair CLR 89.6 73.4 59% 98 30.15 0.0
02 09:35 SW 5 10.00 Fair CLR 87.8 73.4 62% 96 30.15 0.0
02 09:15 Calm 10.00 Fair CLR 86 75.2 70% 95 30.15 0.0
02 08:55 Calm 10.00 Fair CLR 84.2 75.2 74% 92 30.14 0.0
02 08:35 Calm 10.00 Fair CLR 82.4 77 84% 91 30.14 0.0
02 08:15 Calm 10.00 Fair CLR 78.8 77 94% 83 30.15 0.0
02 07:55 Calm 10.00 Fair CLR 77 75.2 94% 78 30.15 0.0
02 07:35 Calm 10.00 Fair CLR 75.2 75.2 100% 73 30.15 0.0
02 07:15 Calm 10.00 Fair CLR 71.6 71.6 100% 30.14 0.0
02 06:55 Calm 8.00 Fair CLR 69.8 69.8 100% 30.14 0.0
02 06:35 Calm 9.00 Fair CLR 69.8 69.8 100% 30.13 0.0
02 06:15 Calm 9.00 Fair CLR 69.8 69.8 100% 30.12 0.0
02 05:55 Calm 9.00 Fair CLR 69.8 69.8 100% 30.11 0.0
02 05:35 Calm 5.00 Fog/Mist CLR 68 68 100% 30.11 0.0
02 05:15 Calm 5.00 Fog/Mist CLR 68 68 100% 30.11 0.0
02 04:55 Calm 2.50 Fog/Mist CLR 68 68 100% 30.11 0.0
02 04:35 Calm 2.50 Fog/Mist CLR 68 68 100% 30.1 0.0
02 04:15 Calm 3.00 Fog/Mist CLR 69.8 69.8 100% 30.1 0.0
02 03:55 Calm 0.25 Fog VV002 68 68 100% 30.09 0.0
02 03:35 Calm 9.00 Fair CLR 68 68 100% 30.09 0.0
02 03:15 Calm 7.00 Fair CLR 69.8 69.8 100% 30.09 0.0
02 02:55 Calm 6.00 Fog/Mist CLR 69.8 69.8 100% 30.09 0.0
02 02:35 Calm 7.00 Fair CLR 69.8 69.8 100% 30.09 0.0
02 02:15 Calm 8.00 Fair CLR 69.8 69.8 100% 30.09 0.0
02 01:55 Calm 7.00 Fair CLR 69.8 69.8 100% 30.09 0.0
02 01:35 Calm 9.00 Fair CLR 69.8 69.8 100% 30.09 0.0
02 01:15 Calm 9.00 Fair CLR 69.8 69.8 100% 30.09 0.0
02 00:55 Calm 9.00 Fair CLR 71.6 71.6 100% 30.09 0.0
02 00:35 Calm 8.00 Fair CLR 69.8 69.8 100% 30.09 0.0
02 00:15 Calm 10.00 Fair CLR 71.6 71.6 100% 30.09 0.0
01 23:55 Calm 10.00 Fair CLR 69.8 69.8 100% 30.09 0.0
01 23:35 Calm 10.00 Fair CLR 71.6 71.6 100% 30.09 0.0
01 23:15 Calm 10.00 Fair CLR 71.6 71.6 100% 30.1 0.0
01 22:55 Calm 10.00 Fair CLR 71.6 71.6 100% 30.1 0.0
01 22:35 Calm 10.00 Fair CLR 73.4 73.4 100% 30.1 0.0
01 22:15 Calm 10.00 Fair CLR 73.4 73.4 100% 30.1 0.0
01 21:55 Calm 10.00 Fair CLR 73.4 73.4 100% 30.1 0.0
01 21:35 Calm 10.00 Fair CLR 73.4 73.4 100% 30.1 0.0
01 21:15 Calm 10.00 Fair CLR 75.2 75.2 100% 73 30.09 0.0
01 20:55 Calm 10.00 Fair CLR 77 77 100% 78 30.09 0.0
01 20:35 Calm 10.00 Fair CLR 77 77 100% 78 30.09 0.0
01 20:15 Calm 10.00 Fair CLR 77 77 100% 78 30.08 0.0
01 19:55 Calm 10.00 Fair CLR 77 75.2 94% 78 30.07 0.0
01 19:35 Calm 10.00 Fair CLR 78.8 77 94% 83 30.07 0.0
01 19:15 Calm 10.00 Fair CLR 82.4 75.2 79% 89 30.07 0.0
01 18:55 Calm 10.00 Fair CLR 84.2 75.2 74% 92 30.07 0.0
01 18:35 Calm 10.00 Fair CLR 87.8 75.2 66% 98 30.07 0.0
01 18:15 Calm 10.00 Fair CLR 87.8 77 70% 100 30.07 0.0
01 17:55 Calm 10.00 Fair CLR 91.4 75.2 59% 103 30.07 0.0
01 17:35 Calm 10.00 Fair CLR 93.2 69.8 47% 99 30.07 0.0
01 17:15 Calm 10.00 Fair CLR 93.2 69.8 47% 99 30.07 0.0
01 16:55 Calm 10.00 Fair CLR 93.2 69.8 47% 99 30.07 0.0
01 16:35 Calm 10.00 Fair CLR 95 69.8 44% 101 30.08 0.0
01 16:15 Calm 10.00 Fair CLR 95 68 41% 100 30.08 0.0
01 15:55 Calm 10.00 Partly Cloudy SCT055 SCT090 95 69.8 44% 101 30.08 0.0
01 15:35 Calm 10.00 Mostly Cloudy BKN055 95 69.8 44% 101 30.09 0.0
01 15:15 Calm 10.00 A Few Clouds FEW060 95 68 41% 100 30.09 0.0
01 14:55 NE 6 10.00 Fair CLR 95 69.8 44% 101 30.09 0.0
01 14:35 NW 7 10.00 Fair CLR 93.2 69.8 47% 99 30.1 0.0
01 14:15 Vrbl 3 10.00 Fair CLR 95 69.8 44% 101 30.11 0.0
01 13:55 SW 5 10.00 Fair CLR 93.2 69.8 47% 99 30.12 0.0
01 13:35 N 5 10.00 Fair CLR 91.4 69.8 49% 97 30.12 0.0
01 13:15 Vrbl 3 10.00 Fair CLR 93.2 69.8 47% 99 30.12 0.0
01 12:55 Calm 10.00 A Few Clouds FEW047 FEW055 FEW065 91.4 69.8 49% 97 30.13 0.0
01 12:35 N 6 10.00 Mostly Cloudy SCT048 BKN055 BKN065 91.4 71.6 52% 99 30.13 0.0
01 12:15 W 8 10.00 A Few Clouds FEW047 91.4 71.6 52% 99 30.14 0.0
01 11:55 Calm 10.00 A Few Clouds FEW045 FEW055 89.6 69.8 52% 95 30.15 0.0
01 11:35 Vrbl 7 10.00 A Few Clouds FEW045 91.4 73.4 56% 100 30.16 0.0
01 11:15 Vrbl 5 10.00 Fair CLR 91.4 71.6 52% 99 30.16 0.0
01 10:55 Calm 9.00 Fair CLR 89.6 73.4 59% 98 30.17 0.0
01 10:35 Calm 10.00 Fair CLR 87.8 73.4 62% 96 30.17 0.0
01 10:15 Calm 10.00 Fair CLR 87.8 73.4 62% 96 30.17 0.0
01 09:55 Calm 10.00 Fair CLR 87.8 73.4 62% 96 30.17 0.0
01 09:35 Calm 10.00 Fair CLR 86 73.4 66% 93 30.17 0.0
01 09:15 SW 3 10.00 Fair CLR 84.2 73.4 70% 91 30.17 0.0
01 08:55 Calm 10.00 Fair CLR 82.4 73.4 74% 88 30.17 0.0
01 08:35 Calm 10.00 Fair CLR 80.6 75.2 84% 86 30.17 0.0
01 08:15 Calm 10.00 Fair CLR 78.8 75.2 89% 82 30.17 0.0
01 07:55 Calm 10.00 Fair CLR 77 75.2 94% 78 30.17 0.0
01 07:35 Calm 10.00 Fair CLR 73.4 73.4 100% 30.17 0.0
01 07:15 Calm 10.00 Fair CLR 71.6 71.6 100% 30.16 0.0
01 06:55 Calm 8.00 Fair CLR 68 68 100% 30.15 0.0
01 06:35 Calm 3.00 Fog/Mist CLR 66.2 66.2 100% 30.14 0.0
01 06:15 Calm 5.00 Fog/Mist CLR 66.2 66.2 100% 30.13 0.0
01 05:55 Calm 4.00 Fog/Mist CLR 66.2 66.2 100% 30.13 0.0
01 05:35 Calm 0.25 Fog VV002 66.2 66.2 100% 30.13 0.0
01 05:15 Calm 2.50 Fog/Mist CLR 66.2 66.2 100% 30.12 0.0
01 04:55 Calm 8.00 Fair CLR 66.2 66.2 100% 30.12 0.0
01 04:35 Calm 0.50 Fog/Mist VV005 68 68 100% 30.12 0.0
01 04:15 Calm 6.00 Fog/Mist CLR 68 68 100% 30.12 0.0
01 03:55 Calm 3.00 Fog/Mist CLR 66.2 66.2 100% 30.11 0.0
01 03:35 Calm 0.50 Fog/Mist VV005 68 68 100% 30.11 0.0
01 03:15 Calm 0.25 Fog VV002 68 68 100% 30.11 0.0
01 02:55 Calm 2.00 Fog/Mist CLR 68 68 100% 30.1 0.0
01 02:35 Calm 3.00 Fog/Mist CLR 68 68 100% 30.11 0.0
01 02:15 Calm 2.50 Fog/Mist CLR 68 68 100% 30.11 0.0
01 01:55 Calm 3.00 Fog/Mist CLR 68 68 100% 30.11 0.0
01 01:35 Calm 6.00 Fog/Mist CLR 69.8 69.8 100% 30.11 0.0
01 01:15 Calm 7.00 Fair CLR 68 68 100% 30.11 0.0
01 00:55 Calm 1.50 Fog/Mist CLR 69.8 69.8 100% 30.12 0.0
01 00:35 Calm 6.00 Fog/Mist CLR 69.8 69.8 100% 30.12 0.0
01 00:15 Calm 9.00 Fair CLR 69.8 69.8 100% 30.12 0.0
31 23:55 Calm 8.00 Fair CLR 69.8 69.8 100% 30.12 0.0
31 23:35 Calm 9.00 Fair CLR 71.6 71.6 100% 30.12 0.0
31 23:15 Calm 9.00 Fair CLR 71.6 71.6 100% 30.12 0.0
31 22:55 Calm 10.00 Fair CLR 71.6 71.6 100% 30.12 0.0
31 21:55 Calm 10.00 Fair CLR 71.6 71.6 100% 30.11 0.0
31 21:35 Calm 10.00 Fair CLR 73.4 73.4 100% 30.11 0.0
31 21:15 Calm 10.00 Fair CLR 73.4 73.4 100% 30.11 0.0
31 20:55 Calm 10.00 Fair CLR 73.4 73.4 100% 30.1 0.0
31 20:35 Calm 10.00 Fair CLR 73.4 73.4 100% 30.09 0.0
31 20:15 Calm 10.00 Fair CLR 75.2 75.2 100% 73 30.09 0.0
31 19:55 Calm 10.00 Fair CLR 77 75.2 94% 78 30.08 0.0
31 19:35 Calm 10.00 Fair CLR 78.8 77 94% 83 30.08 0.0
31 19:15 Calm 10.00 Fair CLR 82.4 73.4 74% 88 30.08 0.0
31 18:35 S 3 10.00 Fair CLR 87.8 71.6 59% 94 30.08 0.0
31 18:15 S 5 10.00 Fair CLR 89.6 69.8 52% 95 30.09 0.0
31 17:55 Calm 10.00 Fair CLR 89.6 71.6 55% 96 30.09 0.0
31 17:35 Calm 10.00 Fair CLR 91.4 69.8 49% 97 30.09 0.0
31 17:15 Calm 10.00 A Few Clouds FEW100 91.4 68 46% 96 30.09 0.0
31 16:55 Calm 10.00 Fair CLR 93.2 68 44% 98 30.1 0.0
31 16:35 Calm 10.00 Fair CLR 93.2 68 44% 98 30.1 0.0
31 16:15 Calm 10.00 Fair CLR 91.4 68 46% 96 30.1 0.0
31 15:55 Calm 10.00 Fair CLR 93.2 68 44% 98 30.1 0.0
31 15:35 Vrbl 3 10.00 Fair CLR 93.2 68 44% 98 30.11 0.0
31 15:15 Vrbl 3 10.00 Fair CLR 93.2 66.2 41% 96 30.11 0.0
31 14:55 W 6 10.00 Fair CLR 93.2 68 44% 98 30.12 0.0
31 14:35 Calm 10.00 Fair CLR 93.2 68 44% 98 30.12 0.0
31 14:15 Calm 10.00 Fair CLR 93.2 68 44% 98 30.13 0.0
31 13:55 Calm 10.00 Fair CLR 93.2 69.8 47% 99 30.14 0.0
31 13:35 Vrbl 3 10.00 A Few Clouds FEW085 91.4 69.8 49% 97 30.14 0.0
31 13:15 Calm 10.00 A Few Clouds FEW085 89.6 71.6 55% 96 30.15 0.0
31 12:55 Vrbl 5 10.00 Fair CLR 91.4 71.6 52% 99 30.16 0.0
31 12:35 Vrbl 5 10.00 Fair CLR 91.4 71.6 52% 99 30.16 0.0
31 12:15 Calm 10.00 A Few Clouds FEW042 FEW050 89.6 69.8 52% 95 30.17 0.0
31 11:55 Calm 10.00 Partly Cloudy SCT041 SCT050 89.6 71.6 55% 96 30.17 0.0
31 11:35 W 5 9.00 A Few Clouds FEW041 89.6 71.6 55% 96 30.18 0.0
31 11:15 S 7 7.00 A Few Clouds FEW039 87.8 71.6 59% 94 30.18 0.0
31 10:55 S 8 10.00 Fair CLR 87.8 73.4 62% 96 30.18 0.0
31 10:35 S 7 10.00 Fair CLR 87.8 73.4 62% 96 30.18 0.0
31 10:15 Vrbl 6 10.00 Fair CLR 86 73.4 66% 93 30.19 0.0
31 09:55 S 5 10.00 Fair CLR 84.2 73.4 70% 91 30.18 0.0
31 09:35 S 5 10.00 Fair CLR 84.2 75.2 74% 92 30.18 0.0
31 09:15 S 6 10.00 Fair CLR 82.4 75.2 79% 89 30.18 0.0
31 08:55 S 6 10.00 Fair CLR 82.4 75.2 79% 89 30.17 0.0
31 08:35 S 7 10.00 Fair CLR 80.6 75.2 84% 86 30.18 0.0
31 08:15 S 7 10.00 Fair CLR 78.8 75.2 89% 82 30.17 0.0
31 07:55 Calm 10.00 Fair CLR 77 75.2 94% 78 30.17 0.0
31 07:35 Calm 10.00 Fair CLR 73.4 73.4 100% 30.17 0.0
31 07:15 Calm 9.00 Fair CLR 69.8 69.8 100% 30.16 0.0
31 06:55 Calm 9.00 Fair CLR 68 68 100% 30.16 0.0
31 06:35 Calm 9.00 Fair CLR 66.2 66.2 100% 30.15 0.0
31 06:15 Calm 8.00 Fair CLR 66.2 66.2 100% 30.15 0.0
31 05:35 Calm 7.00 Fair CLR 66.2 66.2 100% 30.14 0.0
31 04:35 Calm 3.00 Fog/Mist CLR 66.2 66.2 100% 30.13 0.0
31 04:15 Calm 9.00 Fair CLR 66.2 66.2 100% 30.13 0.0
31 03:55 Calm 5.00 Fog/Mist CLR 66.2 66.2 100% 30.13 0.0
31 03:35 Calm 8.00 Fair CLR 66.2 66.2 100% 30.12 0.0
31 03:15 Calm 4.00 Fog/Mist CLR 68 68 100% 30.11 0.0
31 02:55 Calm 7.00 Fair CLR 68 68 100% 30.11 0.0
31 02:35 Calm 8.00 Fair CLR 68 68 100% 30.12 0.0
31 02:15 Calm 9.00 Fair CLR 66.2 66.2 100% 30.12 0.0
31 01:55 Calm 10.00 Fair CLR 66.2 66.2 100% 30.12 0.0
31 01:35 Calm 10.00 Fair CLR 68 68 100% 30.12 0.0
31 00:55 Calm 5.00 Fog/Mist CLR 68 68 100% 30.12 0.0
31 00:35 Calm 10.00 Fair CLR 68 68 100% 30.13 0.0
31 00:15 Calm 9.00 Fair CLR 69.8 69.8 100% 30.13 0.0
Date Time (cdt) Wind (mph) Vis. (mi.) Weather Sky Cond. Air Dwpt Max. Min. Relative Humidity Wind Chill (°F) Heat Index (°F) altimeter (in) sea level (mb) 1 hr 3 hr 6 hr
6 hour
Temperature (ºF) Pressure Precipitation (in)